createdAt,value
2018-02-17T00:03:42.000Z,1018.396
2018-02-17T00:13:42.000Z,1018.26
2018-02-17T00:23:42.000Z,1018.23
2018-02-17T00:33:42.000Z,1018.283
2018-02-17T00:43:42.000Z,1018.343
2018-02-17T00:53:43.000Z,1018.289
2018-02-17T01:03:43.000Z,1018.176
2018-02-17T01:13:43.000Z,1018.143
2018-02-17T01:23:43.000Z,1018.161
2018-02-17T01:33:43.000Z,1017.948
2018-02-17T01:43:43.000Z,1017.697
2018-02-17T01:53:43.000Z,1017.617
2018-02-17T02:03:43.000Z,1017.465
2018-02-17T02:13:43.000Z,1017.382
2018-02-17T02:23:43.000Z,1017.23
2018-02-17T02:33:43.000Z,1017.234
2018-02-17T02:43:43.000Z,1017.34
2018-02-17T02:53:43.000Z,1017.312
2018-02-17T03:03:43.000Z,1017.316
2018-02-17T03:13:43.000Z,1017.332
2018-02-17T03:23:43.000Z,1017.209
2018-02-17T03:33:43.000Z,1017.184
2018-02-17T03:43:43.000Z,1017.112
2018-02-17T03:53:43.000Z,1017.052
2018-02-17T04:03:43.000Z,1017.026
2018-02-17T04:13:43.000Z,1016.924
2018-02-17T04:23:43.000Z,1016.859
2018-02-17T04:33:43.000Z,1016.786
2018-02-17T04:43:43.000Z,1016.653
2018-02-17T04:53:43.000Z,1016.44
2018-02-17T05:03:43.000Z,1016.371
2018-02-17T05:13:43.000Z,1016.199
2018-02-17T05:23:43.000Z,1016.128
2018-02-17T05:33:43.000Z,1016.111
2018-02-17T05:43:43.000Z,1016.021
2018-02-17T05:53:43.000Z,1016.012
2018-02-17T06:03:43.000Z,1015.959
2018-02-17T06:13:43.000Z,1016.016
2018-02-17T06:23:43.000Z,1015.96
2018-02-17T06:33:43.000Z,1015.977
2018-02-17T06:43:43.000Z,1016.072
2018-02-17T07:03:43.000Z,1015.821
2018-02-17T07:13:43.000Z,1015.69
2018-02-17T07:23:43.000Z,1015.624
2018-02-17T07:33:43.000Z,1015.533
2018-02-17T07:43:43.000Z,1015.507
2018-02-17T07:53:43.000Z,1015.453
2018-02-17T08:03:43.000Z,1015.41
2018-02-17T08:13:43.000Z,1015.344
2018-02-17T08:23:43.000Z,1015.335
2018-02-17T08:33:43.000Z,1015.427
2018-02-17T08:43:43.000Z,1015.433
2018-02-17T08:53:43.000Z,1015.382
2018-02-17T09:03:43.000Z,1015.352
2018-02-17T09:13:44.000Z,1015.332
2018-02-17T09:23:44.000Z,1015.312
2018-02-17T09:33:44.000Z,1015.427
2018-02-17T09:43:44.000Z,1015.469
2018-02-17T09:53:44.000Z,1015.505
2018-02-17T10:03:44.000Z,1015.635
2018-02-17T10:13:44.000Z,1015.677
2018-02-17T10:23:44.000Z,1015.75
2018-02-17T10:33:44.000Z,1015.63
2018-02-17T10:43:44.000Z,1015.632
2018-02-17T10:53:44.000Z,1015.612
2018-02-17T11:03:44.000Z,1015.561
2018-02-17T11:13:44.000Z,1015.568
2018-02-17T11:23:44.000Z,1015.616
2018-02-17T11:33:44.000Z,1015.683
2018-02-17T11:43:44.000Z,1015.595
2018-02-17T11:53:44.000Z,1015.477
2018-02-17T12:03:44.000Z,1015.485
2018-02-17T12:13:44.000Z,1015.474
2018-02-17T12:23:44.000Z,1015.34
2018-02-17T12:33:44.000Z,1015.421
2018-02-17T12:43:44.000Z,1015.388
2018-02-17T12:53:44.000Z,1015.39
2018-02-17T13:03:44.000Z,1015.326
2018-02-17T13:13:44.000Z,1015.393
2018-02-17T13:23:45.000Z,1015.4
2018-02-17T13:33:44.000Z,1015.383
2018-02-17T13:43:44.000Z,1015.34
2018-02-17T13:53:44.000Z,1015.385
2018-02-17T14:03:44.000Z,1015.414
2018-02-17T14:13:44.000Z,1015.456
2018-02-17T14:23:44.000Z,1015.521
2018-02-17T14:33:44.000Z,1015.545
2018-02-17T14:43:44.000Z,1015.617
2018-02-17T14:53:44.000Z,1015.685
2018-02-17T15:03:44.000Z,1015.702
2018-02-17T15:23:44.000Z,1015.727
2018-02-17T15:33:44.000Z,1015.733
2018-02-17T15:43:44.000Z,1015.81
2018-02-17T15:53:44.000Z,1015.874
2018-02-17T16:03:45.000Z,1015.85
2018-02-17T16:13:44.000Z,1015.942
2018-02-17T16:23:44.000Z,1015.99
2018-02-17T16:33:44.000Z,1016.08
2018-02-17T16:43:44.000Z,1016.168
2018-02-17T16:53:44.000Z,1016.278
2018-02-17T17:03:44.000Z,1016.285
2018-02-17T17:13:44.000Z,1016.431
2018-02-17T17:23:46.000Z,1016.563
2018-02-17T17:33:45.000Z,1016.597
2018-02-17T17:43:46.000Z,1016.683
2018-02-17T17:53:46.000Z,1016.759
2018-02-17T18:03:45.000Z,1016.935
2018-02-17T18:13:45.000Z,1017.01
2018-02-17T18:23:45.000Z,1017.012
2018-02-17T18:33:45.000Z,1017.082
2018-02-17T18:43:45.000Z,1017.081
2018-02-17T18:53:45.000Z,1017.049
2018-02-17T19:03:45.000Z,1017.123
2018-02-17T19:13:45.000Z,1017.16
2018-02-17T19:23:45.000Z,1017.105
2018-02-17T19:33:47.000Z,1017.159
2018-02-17T19:43:45.000Z,1017.17
2018-02-17T19:53:45.000Z,1017.183
2018-02-17T20:03:45.000Z,1017.239
2018-02-17T20:13:45.000Z,1017.396
2018-02-17T20:23:45.000Z,1017.535
2018-02-17T20:33:45.000Z,1017.656
2018-02-17T20:43:45.000Z,1017.742
2018-02-17T20:53:45.000Z,1017.828
2018-02-17T21:03:45.000Z,1017.837
2018-02-17T21:13:45.000Z,1017.835
2018-02-17T21:23:45.000Z,1017.986
2018-02-17T21:33:45.000Z,1018.134
2018-02-17T21:43:45.000Z,1018.293
2018-02-17T21:53:45.000Z,1018.413
2018-02-17T22:03:45.000Z,1018.487
2018-02-17T22:13:45.000Z,1018.543
2018-02-17T22:23:45.000Z,1018.522
2018-02-17T22:33:45.000Z,1018.58
2018-02-17T22:43:45.000Z,1018.61
2018-02-17T22:53:45.000Z,1018.658
2018-02-17T23:03:45.000Z,1018.722
2018-02-17T23:13:45.000Z,1018.703
2018-02-17T23:23:45.000Z,1018.639
2018-02-17T23:33:45.000Z,1018.693
2018-02-17T23:43:45.000Z,1018.722
2018-02-17T23:53:48.000Z,1018.732
